UNKL 070930Z 27004MPS 9999 SCT020CB 19/16 Q1007 R29/290150 NOSIG RMK QFE730
QNH:(hPa/inHg/mmHg)1007 / 29.74 / 755
QFE:(hPa/inHg/mmHg)972 / 28.71 / 729
Temperature19
Dew Point16
Visibility> 10000
Weather
Cloud CoverSCT (2000);
Transition Height1100 m./4600 ft.
Transition LevelFL70
SQUAWK